Weather observations for the past three days for
Scottsboro Municipal Airport
Metric (Imperial)
Date Time (cdt) Wind (kph) Vis. (km) Weather Sky Cond. Temperature (ºC) Relative Humidity Wind Chill (°C) Heat Index (°C) Pressure Precipitation (cm)
Air Dwpt 6 hour altimeter (cm) sea level (mb) 1 hr 3 hr 6 hr
Max. Min.
03 17:15 NE 7 16.09 Fair CLR 37 23 44% 43 76.12 0.0
03 16:55 E 7 16.09 Fair CLR 37 23 44% 43 76.1 0.0
03 16:35 Vrbl 6 16.09 Fair CLR 37 23 44% 43 76.12 0.0
03 16:15 Calm 16.09 A Few Clouds FEW065 37 23 44% 43 76.1 0.0
03 15:55 Calm 16.09 Fair CLR 37 23 44% 43 76.12 0.0
03 15:35 E 11 16.09 Fair CLR 37 23 44% 43 76.15 0.0
03 15:15 Vrbl 6 16.09 Fair CLR 37 23 44% 43 76.17 0.0
03 14:55 Vrbl 9 16.09 Fair CLR 37 23 44% 43 76.17 0.0
03 14:35 S 7 16.09 A Few Clouds FEW070 36 23 47% 42 76.2 0.0
03 14:15 Vrbl 6 16.09 A Few Clouds FEW070 FEW090 37 23 44% 43 76.23 0.0
03 13:55 Calm 16.09 A Few Clouds FEW090 36 23 47% 42 76.23 0.0
03 13:35 E 13 16.09 Fair CLR 36 24 50% 43 76.25 0.0
03 13:15 S 11 16.09 Fair CLR 36 24 50% 43 76.28 0.0
03 12:55 Calm 16.09 Fair CLR 36 24 50% 43 76.28 0.0
03 12:35 Vrbl 9 16.09 Fair CLR 36 24 50% 43 76.3 0.0
03 12:15 Calm 16.09 Fair CLR 35 24 53% 42 76.33 0.0
03 11:55 Calm 16.09 Fair CLR 35 24 53% 42 76.35 0.0
03 11:35 Calm 16.09 Fair CLR 35 24 53% 42 76.38 0.0
03 11:15 N 7 16.09 Fair CLR 34 23 53% 39 76.4 0.0
03 10:55 Calm 16.09 Fair CLR 33 25 63% 41 76.4 0.0
03 10:35 Calm 16.09 Fair CLR 32 25 67% 39 76.4 0.0
03 10:15 Calm 16.09 Fair CLR 31 25 70% 38 76.4 0.0
03 09:55 N 6 16.09 Fair CLR 30 25 75% 36 76.4 0.0
03 09:35 Vrbl 6 16.09 Fair CLR 30 25 75% 36 76.4 0.0
03 09:15 N 7 16.09 Fair CLR 29 25 79% 35 76.4 0.0
03 08:55 NE 9 16.09 Fair CLR 28 25 84% 33 76.4 0.0
03 08:35 N 7 16.09 Fair CLR 28 25 84% 33 76.4 0.0
03 08:15 NE 6 16.09 Fair CLR 26 25 94% 28 76.4 0.0
03 07:55 N 7 16.09 Fair CLR 26 24 89% 28 76.4 0.0
03 07:35 NE 6 16.09 Fair CLR 25 24 94% 26 76.4 0.0
03 07:15 Calm 16.09 Fair CLR 24 24 100% 23 76.4 0.0
03 06:55 Calm 16.09 Fair CLR 23 23 100% 76.4 0.0
03 06:35 Calm 16.09 Fair CLR 23 23 100% 76.4 0.0
03 06:15 Calm 16.09 Fair CLR 23 23 100% 76.38 0.0
03 05:55 Calm 16.09 Fair CLR 23 23 100% 76.38 0.0
03 05:35 Calm 16.09 Fair CLR 23 23 100% 76.35 0.0
03 05:15 Calm 14.48 Fair CLR 23 23 100% 76.35 0.0
03 04:55 Calm 16.09 Fair CLR 23 23 100% 76.35 0.0
03 04:35 Calm 16.09 Fair CLR 23 23 100% 76.35 0.0
03 04:15 Calm 16.09 Fair CLR 23 23 100% 76.35 0.0
03 03:55 Calm 16.09 Fair CLR 23 23 100% 76.33 0.0
03 03:35 Calm 16.09 Fair CLR 24 24 100% 23 76.33 0.0
03 03:15 Calm 16.09 Fair CLR 24 24 100% 23 76.33 0.0
03 02:55 Calm 16.09 Fair CLR 24 24 100% 23 76.33 0.0
03 02:35 Calm 16.09 Fair CLR 24 24 100% 23 76.33 0.0
03 02:15 Calm 16.09 Fair CLR 24 24 100% 23 76.33 0.0
03 01:55 Calm 16.09 Fair CLR 24 24 100% 23 76.33 0.0
03 01:35 Calm 16.09 Fair CLR 24 24 100% 23 76.33 0.0
03 01:15 Calm 16.09 Fair CLR 24 24 100% 23 76.33 0.0
03 00:55 Calm 16.09 Fair CLR 25 25 100% 25 76.33 0.0
03 00:35 Calm 16.09 Fair CLR 25 25 100% 25 76.33 0.0
03 00:15 Calm 16.09 Fair CLR 25 25 100% 25 76.33 0.0
02 23:55 Calm 16.09 Fair CLR 25 25 100% 25 76.33 0.0
02 23:35 Calm 16.09 Fair CLR 25 25 100% 25 76.33 0.0
02 23:15 Calm 16.09 Fair CLR 25 25 100% 25 76.33 0.0
02 22:55 Calm 16.09 Fair CLR 26 25 94% 28 76.33 0.0
02 22:35 Calm 16.09 Fair CLR 26 25 94% 28 76.33 0.0
02 22:15 Calm 16.09 Fair CLR 26 25 94% 28 76.33 0.0
02 21:55 Calm 16.09 Fair CLR 26 25 94% 28 76.33 0.0
02 21:35 Calm 16.09 Fair CLR 27 25 89% 31 76.33 0.0
02 21:15 Calm 16.09 Fair CLR 27 25 89% 31 76.33 0.0
02 20:55 Calm 16.09 Fair CLR 27 25 89% 31 76.3 0.0
02 20:35 Calm 16.09 Fair CLR 28 25 84% 33 76.3 0.0
02 20:10 Calm 16.09 Fair CLR 28 24 79% 32 76.28 0.0
02 19:55 Calm 16.09 Fair CLR 29 25 79% 35 76.28 0.0
02 19:35 Calm 16.09 Fair CLR 30 25 75% 36 76.25 0.0
02 19:15 Calm 16.09 Fair CLR 30 25 75% 36 76.25 0.0
02 18:55 Calm 16.09 Fair CLR 31 26 75% 39 76.25 0.0
02 18:35 Calm 16.09 Fair CLR 32 25 67% 39 76.25 0.0
02 18:15 Calm 16.09 Fair CLR 34 26 63% 43 76.25 0.0
02 17:55 Calm 16.09 Fair CLR 36 24 50% 43 76.25 0.0
02 17:35 Calm 16.09 Fair CLR 36 22 44% 41 76.25 0.0
02 17:15 S 7 16.09 Fair CLR 36 22 44% 41 76.25 0.0
02 16:55 Calm 16.09 Fair CLR 36 22 44% 41 76.28 0.0
02 16:35 Vrbl 7 16.09 Fair CLR 36 22 44% 41 76.28 0.0
02 16:15 Calm 16.09 Fair CLR 37 22 42% 42 76.28 0.0
02 15:55 Vrbl 9 16.09 Fair CLR 36 22 44% 41 76.3 0.0
02 15:35 Calm 16.09 Fair CLR 36 22 44% 41 76.3 0.0
02 15:15 Vrbl 9 16.09 Fair CLR 36 22 44% 41 76.33 0.0
02 14:55 S 11 16.09 Fair CLR 36 22 44% 41 76.33 0.0
02 14:35 Calm 16.09 Fair CLR 36 22 44% 41 76.35 0.0
02 14:15 SE 9 16.09 Fair CLR 36 23 47% 42 76.38 0.0
02 13:55 N 6 16.09 Fair CLR 36 23 47% 42 76.38 0.0
02 13:35 Vrbl 7 16.09 Fair CLR 35 23 50% 41 76.4 0.0
02 13:15 Vrbl 6 16.09 Fair CLR 35 23 50% 41 76.43 0.0
02 12:55 Vrbl 7 16.09 Fair CLR 35 23 50% 41 76.43 0.0
02 12:35 NE 9 16.09 Fair CLR 35 23 50% 41 76.45 0.0
02 12:15 W 6 16.09 Fair CLR 35 22 47% 39 76.5 0.0
02 11:55 N 7 16.09 Fair CLR 35 23 50% 41 76.5 0.0
02 11:35 Calm 16.09 Fair CLR 34 24 56% 41 76.53 0.0
02 11:15 Calm 16.09 Fair CLR 33 24 59% 39 76.56 0.0
02 10:55 Calm 16.09 Fair CLR 33 25 63% 41 76.56 0.0
02 10:35 Calm 16.09 Fair CLR 32 24 63% 38 76.58 0.0
02 10:15 Calm 16.09 Fair CLR 31 25 70% 38 76.58 0.0
02 09:55 NE 7 16.09 Fair CLR 30 24 70% 35 76.56 0.0
02 09:35 NE 6 16.09 Fair CLR 29 25 79% 35 76.58 0.0
02 09:15 Calm 16.09 Fair CLR 28 24 79% 32 76.58 0.0
02 08:55 NE 7 16.09 Fair CLR 27 24 84% 30 76.56 0.0
02 08:35 N 7 16.09 Fair CLR 26 24 89% 28 76.58 0.0
02 08:15 N 6 16.09 Fair CLR 26 24 89% 28 76.58 0.0
02 07:55 N 7 16.09 Fair CLR 25 23 89% 26 76.56 0.0
02 07:35 Calm 16.09 Fair CLR 24 23 94% 23 76.56 0.0
02 07:15 Calm 16.09 Fair CLR 23 23 100% 76.56 0.0
02 06:55 Calm 16.09 Fair CLR 22 22 100% 76.53 0.0
02 06:35 Calm 16.09 Fair CLR 22 22 100% 76.53 0.0
02 06:15 Calm 16.09 Fair CLR 22 22 100% 76.5 0.0
02 05:55 Calm 16.09 Fair CLR 22 22 100% 76.5 0.0
02 05:35 Calm 16.09 Fair CLR 22 22 100% 76.5 0.0
02 05:15 Calm 16.09 Fair CLR 22 22 100% 76.48 0.0
02 04:55 Calm 16.09 Fair CLR 22 22 100% 76.45 0.0
02 04:35 Calm 16.09 Fair CLR 22 22 100% 76.45 0.0
02 04:15 Calm 16.09 Fair CLR 23 23 100% 76.43 0.0
02 03:55 Calm 16.09 Fair CLR 23 23 100% 76.4 0.0
02 03:35 Calm 16.09 Fair CLR 23 23 100% 76.4 0.0
02 03:15 Calm 16.09 Fair CLR 23 23 100% 76.4 0.0
02 02:55 Calm 16.09 Fair CLR 23 23 100% 76.4 0.0
02 02:35 Calm 16.09 Fair CLR 23 23 100% 76.4 0.0
02 02:15 Calm 16.09 Fair CLR 23 23 100% 76.38 0.0
02 01:55 Calm 16.09 Fair CLR 23 23 100% 76.4 0.0
02 01:35 Calm 16.09 Fair CLR 23 23 100% 76.4 0.0
02 01:15 Calm 16.09 Fair CLR 23 23 100% 76.4 0.0
02 00:55 Calm 16.09 Fair CLR 24 23 94% 23 76.4 0.0
02 00:35 Calm 16.09 Fair CLR 24 23 94% 23 76.43 0.0
02 00:15 Calm 16.09 Fair CLR 24 23 94% 23 76.43 0.0
01 23:55 Calm 16.09 Fair CLR 24 23 94% 23 76.43 0.0
01 23:35 Calm 16.09 Fair CLR 25 23 89% 26 76.43 0.0
01 23:15 Calm 16.09 Fair CLR 24 23 94% 23 76.43 0.0
01 22:55 Calm 16.09 Fair CLR 25 23 89% 26 76.43 0.0
01 22:35 Calm 16.09 Fair CLR 25 23 89% 26 76.43 0.0
01 22:15 Calm 16.09 Fair CLR 25 23 89% 26 76.43 0.0
01 21:55 Calm 16.09 Fair CLR 25 23 89% 26 76.43 0.0
01 21:35 Calm 16.09 Fair CLR 26 24 89% 28 76.43 0.0
01 21:15 Calm 16.09 Fair CLR 26 24 89% 28 76.4 0.0
01 20:55 Calm 16.09 Fair CLR 26 24 89% 28 76.38 0.0
01 20:35 Calm 16.09 Fair CLR 27 23 79% 30 76.38 0.0
01 20:15 Calm 16.09 Fair CLR 27 24 84% 30 76.35 0.0
01 19:55 Calm 16.09 Fair CLR 28 24 79% 32 76.35 0.0
01 19:35 Calm 16.09 Fair CLR 29 24 74% 34 76.35 0.0
01 19:15 Calm 16.09 Fair CLR 30 24 70% 35 76.35 0.0
01 18:55 Calm 16.09 Fair CLR 30 25 75% 36 76.35 0.0
01 18:35 Calm 14.48 Fair CLR 31 24 66% 37 76.35 0.0
01 18:15 Calm 16.09 Fair CLR 34 21 47% 37 76.35 0.0
01 17:55 E 7 16.09 Fair CLR 35 22 47% 39 76.35 0.0
01 17:35 Calm 16.09 Fair CLR 35 21 44% 38 76.35 0.0
01 17:15 S 7 16.09 Fair CLR 35 21 44% 38 76.33 0.0
01 16:55 SE 7 16.09 Fair CLR 35 21 44% 38 76.33 0.0
01 16:35 S 7 16.09 Fair CLR 35 21 44% 38 76.33 0.0
01 16:15 Vrbl 6 16.09 Fair CLR 36 21 42% 40 76.35 0.0
01 15:55 Vrbl 7 16.09 Fair CLR 36 21 42% 40 76.35 0.0
01 15:35 Calm 16.09 Fair CLR 35 21 44% 38 76.38 0.0
01 15:15 NW 6 16.09 Fair CLR 36 21 42% 40 76.38 0.0
01 14:55 NE 13 16.09 Fair CLR 35 22 47% 39 76.4 0.0
01 14:35 W 7 16.09 A Few Clouds FEW060 35 22 47% 39 76.43 0.0
01 14:15 Calm 16.09 Fair CLR 35 22 47% 39 76.45 0.0
01 13:55 Calm 16.09 A Few Clouds FEW055 35 23 50% 41 76.45 0.0
01 13:35 Vrbl 9 16.09 Fair CLR 35 23 50% 41 76.48 0.0
01 13:15 SE 9 16.09 Fair CLR 34 23 53% 39 76.48 0.0
01 12:55 Vrbl 7 16.09 Fair CLR 35 22 47% 39 76.5 0.0
01 12:35 Vrbl 6 16.09 Fair CLR 35 21 44% 38 76.5 0.0
01 12:15 Calm 16.09 Fair CLR 34 22 50% 38 76.53 0.0
01 11:55 Calm 16.09 Fair CLR 33 23 56% 38 76.56 0.0
01 11:35 Calm 16.09 Fair CLR 33 23 56% 38 76.58 0.0
01 11:15 Calm 16.09 Fair CLR 32 23 59% 37 76.58 0.0
01 10:55 Calm 16.09 Fair CLR 32 24 63% 38 76.61 0.0
01 10:35 Calm 16.09 Fair CLR 31 24 66% 37 76.61 0.0
01 10:15 N 6 16.09 Fair CLR 30 24 70% 35 76.61 0.0
01 09:55 Calm 16.09 Fair CLR 29 24 74% 34 76.63 0.0
01 09:35 Calm 16.09 Fair CLR 28 24 79% 32 76.61 0.0
01 09:15 Vrbl 6 16.09 Fair CLR 28 24 79% 32 76.63 0.0
01 08:55 NE 7 16.09 Fair CLR 27 24 84% 30 76.61 0.0
01 08:35 NE 7 16.09 Fair CLR 26 24 89% 28 76.63 0.0
01 08:15 N 7 16.09 Fair CLR 25 23 89% 26 76.61 0.0
01 07:50 N 7 16.09 Fair CLR 24 23 94% 23 76.61 0.0
01 07:35 Calm 16.09 Fair CLR 24 23 94% 23 76.61 0.0
01 07:15 Calm 16.09 Fair CLR 23 23 100% 76.61 0.0
01 06:55 Calm 16.09 Fair CLR 22 22 100% 76.58 0.0
01 06:35 Calm 16.09 Fair CLR 22 22 100% 76.56 0.0
01 06:15 Calm 16.09 Fair CLR 22 22 100% 76.53 0.0
01 05:55 Calm 16.09 Fair CLR 22 22 100% 76.53 0.0
01 05:35 Calm 16.09 Fair CLR 22 22 100% 76.53 0.0
01 05:15 Calm 16.09 Fair CLR 22 22 100% 76.5 0.0
01 04:55 Calm 16.09 Fair CLR 22 22 100% 76.5 0.0
01 04:35 Calm 16.09 Fair CLR 22 22 100% 76.5 0.0
01 04:15 Calm 16.09 Fair CLR 22 22 100% 76.48 0.0
01 03:55 Calm 16.09 Fair CLR 22 22 100% 76.48 0.0
01 03:35 Calm 16.09 Fair CLR 22 22 100% 76.48 0.0
01 03:15 Calm 16.09 Fair CLR 22 22 100% 76.45 0.0
01 02:55 Calm 16.09 Fair CLR 23 23 100% 76.48 0.0
01 02:35 Calm 16.09 Fair CLR 23 23 100% 76.48 0.0
01 02:15 Calm 16.09 Fair CLR 23 23 100% 76.48 0.0
01 01:55 Calm 16.09 Fair CLR 23 23 100% 76.48 0.0
01 01:35 Calm 16.09 Fair CLR 23 23 100% 76.48 0.0
01 01:15 Calm 16.09 Fair CLR 23 23 100% 76.48 0.0
01 00:55 Calm 16.09 Fair CLR 23 23 100% 76.48 0.0
01 00:35 Calm 16.09 Fair CLR 24 24 100% 23 76.48 0.0
01 00:15 Calm 16.09 Fair CLR 24 24 100% 23 76.48 0.0
31 23:55 Calm 16.09 Fair CLR 24 24 100% 23 76.48 0.0
31 23:35 Calm 16.09 Fair CLR 24 24 100% 23 76.48 0.0
31 23:15 Calm 16.09 Fair CLR 24 24 100% 23 76.48 0.0
31 22:55 Calm 16.09 Fair CLR 24 24 100% 23 76.48 0.0
31 22:35 Calm 16.09 Fair CLR 25 24 94% 26 76.45 0.0
31 22:15 Calm 16.09 Fair CLR 25 24 94% 26 76.48 0.0
31 21:55 Calm 16.09 Fair CLR 25 24 94% 26 76.48 0.0
31 21:35 Calm 16.09 Fair CLR 26 25 94% 28 76.48 0.0
31 21:15 Calm 16.09 Fair CLR 26 25 94% 28 76.48 0.0
31 20:55 Calm 16.09 Fair CLR 26 25 94% 28 76.45 0.0
31 20:35 Calm 16.09 Fair CLR 26 25 94% 28 76.43 0.0
31 20:15 Calm 16.09 Fair CLR 27 25 89% 31 76.4 0.0
31 19:55 Calm 16.09 Fair CLR 27 25 89% 31 76.38 0.0
31 19:35 Calm 16.09 Fair CLR 28 25 84% 33 76.38 0.0
31 19:15 Calm 16.09 Fair CLR 29 25 79% 35 76.38 0.0
31 18:35 Calm 16.09 Fair CLR 32 23 59% 37 76.38 0.0
31 18:15 Calm 16.09 Fair CLR 33 23 56% 38 76.38 0.0
31 17:55 Vrbl 7 16.09 Fair CLR 33 24 59% 39 76.38 0.0
31 17:35 Vrbl 7 16.09 Fair CLR 34 23 53% 39 76.4 0.0
Date Time (cdt) Wind (kph) Vis. (km) Weather Sky Cond. Air Dwpt Max. Min. Relative Humidity Wind Chill (°C) Heat Index (°C) altimeter (cm) sea level (mb) 1 hr 3 hr 6 hr
6 hour
Temperature (ºC) Pressure Precipitation (cm)